Time;durP1;ratioP1;P1;durP2;ratioP2;P2;SDS_P1;SDS_P2;PMS_P1;PMS_P2;Temp;Humidity;BMP_temperature;BMP_pressure;BME280_temperature;BME280_humidity;BME280_pressure;Samples;Min_cycle;Max_cycle;Signal;HPM_P1;HPM_P2
2023/10/06 00:01:19;;;;;;;13.07;7.32;;;;;;;15.69;81.89;95471.00;5129944;28;20168;-72
2023/10/06 00:03:44;;;;;;;12.80;7.65;;;;;;;15.68;81.82;95477.31;5130119;28;20543;-72
2023/10/06 00:06:21;;;;;;;11.10;7.47;;;;;;;15.67;81.60;95474.91;5125757;28;20180;-72
2023/10/06 00:08:51;;;;;;;14.23;7.60;;;;;;;15.58;82.18;95465.63;5109622;28;20529;-72
2023/10/06 00:11:34;;;;;;;14.38;7.10;;;;;;;15.61;82.31;95470.50;5111694;28;20169;-71
2023/10/06 00:14:07;;;;;;;12.05;7.43;;;;;;;15.51;82.09;95449.78;5113328;28;20169;-72
2023/10/06 00:16:39;;;;;;;18.05;7.78;;;;;;;15.64;81.93;95459.44;5113538;28;20185;-72
2023/10/06 00:19:51;;;;;;;17.70;7.88;;;;;;;15.63;81.74;95460.47;5113292;28;20177;-72
2023/10/06 00:22:03;;;;;;;16.55;8.85;;;;;;;15.65;82.09;95466.38;5101321;28;20426;-72
2023/10/06 00:24:31;;;;;;;15.15;7.75;;;;;;;15.64;82.31;95464.75;5111006;28;20188;-73
2023/10/06 00:26:57;;;;;;;12.57;7.50;;;;;;;15.67;82.33;95461.63;5108513;27;20217;-73
2023/10/06 00:29:23;;;;;;;16.65;8.68;;;;;;;15.65;82.19;95455.75;5133447;27;20199;-73
2023/10/06 00:31:49;;;;;;;21.83;7.47;;;;;;;15.67;82.13;95454.47;5133521;27;20176;-71
2023/10/06 00:34:20;;;;;;;12.35;7.78;;;;;;;15.68;81.67;95458.75;5133415;27;20215;-71
2023/10/06 00:36:51;;;;;;;16.70;8.82;;;;;;;15.64;82.24;95462.91;5133541;27;20266;-72
2023/10/06 00:39:22;;;;;;;15.55;7.75;;;;;;;15.59;81.83;95451.34;5133624;27;20168;-71
2023/10/06 00:41:48;;;;;;;13.93;7.20;;;;;;;15.60;81.93;95466.22;5121819;27;20169;-73
2023/10/06 00:44:14;;;;;;;18.63;8.18;;;;;;;15.51;82.09;95454.28;5116170;27;20260;-73
2023/10/06 00:46:42;;;;;;;20.75;9.13;;;;;;;15.54;82.12;95472.44;5133249;27;20623;-73
2023/10/06 00:49:07;;;;;;;17.08;8.75;;;;;;;15.52;82.14;95471.81;5133153;27;20185;-73
2023/10/06 00:51:33;;;;;;;16.77;8.27;;;;;;;15.53;82.30;95468.16;5133332;27;20188;-73
2023/10/06 00:53:59;;;;;;;14.32;7.78;;;;;;;15.40;82.00;95459.31;5133340;27;20173;-72
2023/10/06 00:56:28;;;;;;;12.27;7.45;;;;;;;15.44;82.25;95468.47;5133281;27;20180;-72
2023/10/06 00:58:54;;;;;;;13.55;7.88;;;;;;;15.43;82.07;95477.44;5132907;27;20311;-72
2023/10/06 01:01:21;;;;;;;14.75;7.63;;;;;;;15.43;82.37;95469.50;5133251;27;20184;-71
2023/10/06 01:06:36;;;;;;;15.32;7.43;;;;;;;15.41;82.69;95468.91;5132846;27;20249;-71
2023/10/06 01:09:12;;;;;;;13.48;6.70;;;;;;;15.29;82.54;95441.53;5133078;27;20288;-71
2023/10/06 01:11:49;;;;;;;18.63;6.80;;;;;;;15.37;83.17;95461.63;5132717;27;20535;-71
2023/10/06 01:14:21;;;;;;;11.63;7.07;;;;;;;15.38;82.71;95455.28;5132616;27;20361;-72
2023/10/06 01:16:49;;;;;;;9.98;6.07;;;;;;;15.37;82.63;95454.47;5132811;27;20665;-73
2023/10/06 01:19:15;;;;;;;14.25;7.05;;;;;;;15.36;82.80;95462.66;5132545;27;20188;-73
2023/10/06 01:21:47;;;;;;;13.50;7.35;;;;;;;15.17;82.83;95427.41;5132303;27;20203;-73
2023/10/06 01:24:26;;;;;;;13.15;6.78;;;;;;;15.31;83.24;95462.50;5131780;27;20237;-71
2023/10/06 01:26:53;;;;;;;17.95;7.88;;;;;;;15.30;83.21;95464.38;5132541;27;20227;-71
2023/10/06 01:29:22;;;;;;;12.32;6.75;;;;;;;15.32;83.23;95470.25;5132626;27;20192;-72
2023/10/06 01:31:49;;;;;;;13.00;6.18;;;;;;;15.30;82.96;95467.03;5131590;27;20190;-72
2023/10/06 01:34:15;;;;;;;17.23;7.55;;;;;;;15.32;83.34;95472.91;5111697;28;20178;-72
2023/10/06 01:36:42;;;;;;;11.35;6.32;;;;;;;15.31;83.47;95481.09;5111802;28;20725;-72
2023/10/06 01:39:16;;;;;;;9.73;6.07;;;;;;;15.31;83.55;95475.78;5111894;28;20172;-72
2023/10/06 01:41:46;;;;;;;12.73;5.93;;;;;;;15.39;83.34;95478.94;5111647;28;20168;-72
2023/10/06 01:44:15;;;;;;;11.35;5.70;;;;;;;15.40;83.13;95475.25;5126244;27;20631;-72
2023/10/06 01:46:53;;;;;;;11.45;5.85;;;;;;;15.42;82.59;95473.19;5131918;27;20172;-72
2023/10/06 01:49:25;;;;;;;9.23;5.95;;;;;;;15.45;82.52;95475.38;5125867;27;20197;-72
2023/10/06 01:51:50;;;;;;;10.48;7.10;;;;;;;15.52;82.55;95485.09;5122988;27;20199;-72
2023/10/06 01:54:17;;;;;;;11.45;6.18;;;;;;;15.56;82.20;95483.66;5131794;27;20217;-71
2023/10/06 01:56:44;;;;;;;12.00;6.38;;;;;;;15.63;81.89;95485.19;5131870;27;20176;-72
2023/10/06 01:59:10;;;;;;;7.32;5.05;;;;;;;15.61;81.67;95484.59;5131593;27;20226;-72
2023/10/06 02:01:39;;;;;;;8.48;5.57;;;;;;;15.61;81.42;95487.25;5131793;27;20171;-72
2023/10/06 02:04:08;;;;;;;8.45;5.68;;;;;;;15.54;81.48;95488.38;5131538;27;20241;-72
2023/10/06 02:06:33;;;;;;;9.02;5.03;;;;;;;15.53;81.75;95486.72;5122496;27;20184;-72
2023/10/06 02:08:59;;;;;;;9.73;5.40;;;;;;;15.54;81.74;95485.72;5111199;27;20173;-72
2023/10/06 02:11:30;;;;;;;10.68;5.57;;;;;;;15.55;81.49;95487.34;5120472;27;20176;-72
2023/10/06 02:13:56;;;;;;;9.60;5.68;;;;;;;15.60;81.27;95498.06;5131477;27;20172;-73
2023/10/06 02:16:26;;;;;;;10.77;5.60;;;;;;;15.61;81.43;95497.84;5131371;27;20225;-73
2023/10/06 02:18:54;;;;;;;13.40;6.05;;;;;;;15.52;81.18;95467.31;5131380;27;20233;-73
2023/10/06 02:21:24;;;;;;;9.48;5.50;;;;;;;15.65;81.40;95493.72;5131327;27;20171;-73
2023/10/06 02:23:51;;;;;;;11.32;5.93;;;;;;;15.46;80.91;95465.59;5131498;27;20168;-73
2023/10/06 02:26:17;;;;;;;11.98;5.78;;;;;;;15.65;81.27;95504.34;5131114;27;20272;-73
2023/10/06 02:28:44;;;;;;;7.45;5.25;;;;;;;15.63;81.03;95497.63;5131372;27;20177;-73
2023/10/06 02:31:11;;;;;;;12.88;6.78;;;;;;;15.60;81.67;95495.41;5129906;27;20990;-71
2023/10/06 02:33:39;;;;;;;11.77;6.07;;;;;;;15.58;81.61;95508.91;5130796;27;20572;-72
2023/10/06 02:36:17;;;;;;;14.10;6.15;;;;;;;15.62;81.67;95509.28;5131014;27;20168;-71
2023/10/06 02:38:46;;;;;;;15.65;6.18;;;;;;;15.62;81.53;95515.41;5130982;27;20202;-72
2023/10/06 02:41:19;;;;;;;9.35;5.70;;;;;;;15.51;81.61;95494.09;5131066;27;20528;-72
2023/10/06 02:43:49;;;;;;;13.27;5.85;;;;;;;15.59;81.36;95515.03;5130963;27;20200;-72
2023/10/06 02:46:25;;;;;;;11.18;5.88;;;;;;;15.58;81.78;95519.53;5130908;27;20172;-73
2023/10/06 02:48:51;;;;;;;9.82;5.05;;;;;;;15.56;82.23;95515.50;5131024;27;20163;-73
2023/10/06 02:51:29;;;;;;;8.70;5.13;;;;;;;15.55;82.39;95514.69;5115129;27;20305;-72
2023/10/06 02:54:09;;;;;;;13.38;5.65;;;;;;;15.57;82.27;95511.81;5110255;28;20173;-72
2023/10/06 02:56:34;;;;;;;9.73;5.35;;;;;;;15.58;82.12;95514.22;5123295;27;20179;-73
2023/10/06 02:59:08;;;;;;;13.15;6.05;;;;;;;15.57;82.09;95504.63;5130835;27;20228;-73
2023/10/06 03:01:38;;;;;;;8.35;5.80;;;;;;;15.55;82.04;95497.97;5130707;27;20175;-72
2023/10/06 03:04:07;;;;;;;10.75;5.97;;;;;;;15.58;82.51;95502.78;5130649;27;20168;-73
2023/10/06 03:06:32;;;;;;;13.18;6.43;;;;;;;15.58;82.07;95506.25;5130534;27;20255;-72
2023/10/06 03:09:05;;;;;;;13.70;6.30;;;;;;;15.56;82.40;95505.69;5130635;27;20266;-72
2023/10/06 03:11:31;;;;;;;13.93;5.25;;;;;;;15.56;82.31;95499.56;5130509;27;20951;-72
2023/10/06 03:13:58;;;;;;;13.98;6.18;;;;;;;15.54;82.47;95509.59;5124331;28;20183;-72
2023/10/06 03:16:25;;;;;;;18.80;5.90;;;;;;;15.45;82.59;95498.47;5129944;28;20319;-73
2023/10/06 03:18:52;;;;;;;15.10;6.47;;;;;;;15.58;82.31;95510.75;5130247;28;20175;-72
2023/10/06 03:21:18;;;;;;;8.77;5.90;;;;;;;15.61;82.37;95510.31;5130521;28;20200;-72
2023/10/06 03:23:56;;;;;;;11.52;5.95;;;;;;;15.65;82.25;95501.69;5130447;28;20677;-72
2023/10/06 03:26:29;;;;;;;12.25;5.93;;;;;;;15.70;81.96;95511.63;5111954;28;20598;-72
2023/10/06 03:29:01;;;;;;;10.60;5.97;;;;;;;15.70;82.12;95508.97;5130233;28;20188;-72
2023/10/06 03:31:44;;;;;;;12.98;6.78;;;;;;;15.74;81.84;95505.63;5130029;28;20259;-72
2023/10/06 03:34:15;;;;;;;13.13;5.35;;;;;;;15.76;81.81;95505.41;5113320;28;20195;-72
2023/10/06 03:36:46;;;;;;;10.40;5.70;;;;;;;15.76;81.76;95508.03;5117324;28;20191;-72
2023/10/06 03:39:12;;;;;;;17.70;6.63;;;;;;;15.74;81.73;95510.16;5130339;28;20184;-72
2023/10/06 03:41:41;;;;;;;12.60;5.70;;;;;;;15.70;81.79;95511.63;5130206;28;20176;-72
2023/10/06 03:44:11;;;;;;;12.55;6.70;;;;;;;15.66;82.03;95511.25;5130359;28;20268;-72
2023/10/06 03:46:37;;;;;;;18.75;6.90;;;;;;;15.62;82.01;95509.28;5132647;27;20183;-72
2023/10/06 03:49:05;;;;;;;12.50;6.22;;;;;;;15.55;82.21;95508.56;5134230;27;20248;-72
2023/10/06 03:51:38;;;;;;;14.13;6.72;;;;;;;15.49;82.70;95504.91;5134326;27;20247;-72
2023/10/06 03:54:04;;;;;;;14.45;7.20;;;;;;;15.46;82.64;95502.75;5134014;27;20160;-71
2023/10/06 03:56:30;;;;;;;12.98;6.03;;;;;;;15.43;82.59;95501.34;5134274;27;20176;-71
2023/10/06 03:58:56;;;;;;;11.63;6.38;;;;;;;15.48;82.66;95516.56;5133777;27;20164;-71
2023/10/06 04:01:26;;;;;;;15.10;6.32;;;;;;;15.47;82.63;95509.66;5134115;27;20173;-71
2023/10/06 04:03:53;;;;;;;19.08;6.30;;;;;;;15.45;82.48;95506.41;5134117;27;20279;-71
2023/10/06 04:06:21;;;;;;;10.50;5.97;;;;;;;15.46;82.25;95510.69;5133957;27;20541;-71
2023/10/06 04:08:46;;;;;;;12.00;6.80;;;;;;;15.40;82.67;95509.72;5133848;27;20279;-71
2023/10/06 04:11:14;;;;;;;21.45;6.45;;;;;;;15.25;82.68;95493.41;5133357;27;20279;-71
2023/10/06 04:13:40;;;;;;;14.80;6.65;;;;;;;15.38;82.78;95513.66;5133429;27;20222;-71
2023/10/06 04:16:06;;;;;;;14.73;6.45;;;;;;;15.30;82.61;95509.47;5133542;27;20176;-72
2023/10/06 04:18:32;;;;;;;14.90;5.85;;;;;;;15.30;82.39;95516.63;5133677;27;20171;-71
2023/10/06 04:20:58;;;;;;;12.45;6.05;;;;;;;15.30;82.65;95519.28;5133530;27;20181;-72
2023/10/06 04:23:24;;;;;;;14.13;5.70;;;;;;;15.32;82.32;95525.16;5133347;27;20172;-72
2023/10/06 04:25:57;;;;;;;11.40;5.40;;;;;;;15.35;82.11;95528.19;5133081;27;20219;-72
2023/10/06 04:28:24;;;;;;;11.43;5.70;;;;;;;15.40;81.67;95530.16;5133298;27;20232;-71
2023/10/06 04:30:50;;;;;;;7.20;4.05;;;;;;;15.19;81.04;95490.84;5133200;27;20196;-71
2023/10/06 04:33:18;;;;;;;8.85;4.97;;;;;;;15.41;81.07;95532.59;5133350;27;20179;-71
2023/10/06 04:35:55;;;;;;;8.90;4.38;;;;;;;15.44;81.06;95532.16;5133476;27;20243;-71
2023/10/06 04:38:23;;;;;;;10.52;5.05;;;;;;;15.38;80.70;95514.47;5133538;27;20191;-71
2023/10/06 04:40:48;;;;;;;12.32;4.63;;;;;;;15.41;80.48;95519.31;5133368;27;20651;-71
2023/10/06 04:43:15;;;;;;;12.35;4.97;;;;;;;15.53;80.37;95537.13;5133493;27;20180;-72
2023/10/06 04:45:40;;;;;;;10.95;4.63;;;;;;;15.56;80.23;95536.72;5130915;27;20176;-72
2023/10/06 04:48:09;;;;;;;8.75;4.45;;;;;;;15.61;80.30;95540.31;5112901;28;20560;-72
2023/10/06 04:50:35;;;;;;;9.30;4.70;;;;;;;15.65;80.24;95541.50;5112932;28;20200;-72
2023/10/06 04:53:01;;;;;;;13.35;4.80;;;;;;;15.66;80.09;95543.09;5128794;27;20164;-72
2023/10/06 04:55:31;;;;;;;14.45;5.47;;;;;;;15.72;79.82;95544.06;5133034;27;20176;-73
2023/10/06 04:57:56;;;;;;;14.10;5.03;;;;;;;15.78;79.56;95551.13;5133129;27;20176;-73
2023/10/06 05:00:22;;;;;;;13.15;5.07;;;;;;;15.83;79.33;95551.25;5129973;27;20199;-71
2023/10/06 05:02:50;;;;;;;29.08;5.47;;;;;;;15.88;79.30;95561.19;5116589;27;20255;-72
2023/10/06 05:05:21;;;;;;;10.88;5.03;;;;;;;15.83;79.07;95548.59;5111969;28;20233;-72
2023/10/06 05:07:48;;;;;;;17.38;5.10;;;;;;;16.03;78.74;95564.25;5112139;28;20207;-72
2023/10/06 05:10:16;;;;;;;15.60;5.15;;;;;;;16.09;78.54;95564.13;5111937;28;20189;-72
2023/10/06 05:12:42;;;;;;;15.43;5.55;;;;;;;16.27;78.02;95575.72;5112327;28;20169;-72
2023/10/06 05:15:14;;;;;;;13.32;5.40;;;;;;;16.39;77.39;95574.72;5112301;28;20260;-72
2023/10/06 05:17:40;;;;;;;10.98;4.75;;;;;;;16.47;76.94;95576.22;5112515;28;20173;-72
2023/10/06 05:20:13;;;;;;;16.70;6.03;;;;;;;16.56;76.80;95574.84;5111775;28;20229;-71
2023/10/06 05:22:40;;;;;;;18.00;5.78;;;;;;;16.56;77.16;95572.19;5125954;27;20184;-71
2023/10/06 05:25:12;;;;;;;19.85;5.72;;;;;;;16.69;76.74;95579.97;5121713;27;20212;-71
2023/10/06 05:27:38;;;;;;;21.00;5.22;;;;;;;16.91;76.47;95583.69;5111930;28;20220;-71
2023/10/06 05:30:05;;;;;;;12.15;5.80;;;;;;;17.18;75.41;95585.84;5111824;28;20221;-71
2023/10/06 05:32:31;;;;;;;15.85;5.38;;;;;;;17.34;74.14;95587.78;5111707;28;20180;-71
2023/10/06 05:34:57;;;;;;;21.00;5.40;;;;;;;17.59;73.69;95592.81;5111455;28;20181;-71
2023/10/06 05:37:23;;;;;;;14.32;5.57;;;;;;;17.80;73.42;95594.88;5111720;28;20550;-71
2023/10/06 05:39:49;;;;;;;11.13;4.93;;;;;;;18.04;72.07;95598.25;5111741;28;20176;-71
2023/10/06 05:42:14;;;;;;;23.30;5.78;;;;;;;18.26;71.87;95599.16;5111840;27;20177;-71
2023/10/06 05:44:41;;;;;;;16.10;5.53;;;;;;;18.39;70.94;95596.22;5111661;28;20700;-71
2023/10/06 05:47:08;;;;;;;12.25;5.55;;;;;;;18.59;70.10;95605.63;5111533;27;20246;-71
2023/10/06 05:49:35;;;;;;;9.15;4.50;;;;;;;18.72;69.41;95589.28;5111409;28;20201;-71
2023/10/06 05:52:03;;;;;;;9.52;4.78;;;;;;;19.07;68.85;95607.69;5111459;28;20659;-71
2023/10/06 05:54:29;;;;;;;12.05;4.63;;;;;;;19.34;68.09;95613.16;5111535;28;20184;-70
2023/10/06 05:56:55;;;;;;;11.02;4.97;;;;;;;19.55;66.54;95615.84;5117166;27;20219;-69
2023/10/06 05:59:21;;;;;;;13.23;7.20;;;;;;;19.34;66.77;95586.44;5131778;27;20644;-71
2023/10/06 06:01:56;;;;;;;17.05;6.28;;;;;;;19.69;66.44;95615.50;5131860;27;20202;-71
2023/10/06 06:04:27;;;;;;;8.82;5.18;;;;;;;20.05;64.96;95620.22;5131987;27;20175;-70
2023/10/06 06:06:57;;;;;;;8.98;4.82;;;;;;;20.32;64.29;95622.91;5132061;27;20179;-70
2023/10/06 06:09:25;;;;;;;9.18;4.47;;;;;;;20.55;63.21;95621.78;5129668;27;20197;-70
2023/10/06 06:11:51;;;;;;;7.97;4.93;;;;;;;20.83;62.82;95626.06;5130094;27;20190;-70
2023/10/06 06:14:20;;;;;;;24.58;5.18;;;;;;;21.00;62.11;95626.72;5130150;27;20850;-70
2023/10/06 06:16:46;;;;;;;8.57;4.63;;;;;;;21.31;61.29;95633.09;5130337;27;20176;-70
2023/10/06 06:19:11;;;;;;;10.23;4.88;;;;;;;21.64;60.03;95631.94;5130370;27;20176;-70
2023/10/06 06:21:38;;;;;;;10.52;4.50;;;;;;;21.92;59.01;95625.34;5130641;27;20172;-70
2023/10/06 06:24:06;;;;;;;16.02;4.55;;;;;;;22.32;57.63;95630.06;5131207;27;20652;-69
2023/10/06 06:26:32;;;;;;;9.40;4.55;;;;;;;22.57;57.25;95636.28;5131161;27;20587;-70
2023/10/06 06:29:02;;;;;;;13.60;4.95;;;;;;;22.73;56.48;95637.13;5131152;27;20236;-69
2023/10/06 06:31:35;;;;;;;10.07;4.82;;;;;;;22.87;56.23;95640.91;5130923;27;20172;-69
2023/10/06 06:34:04;;;;;;;11.15;5.38;;;;;;;22.93;55.90;95642.50;5109743;28;20629;-69
2023/10/06 06:36:32;;;;;;;9.15;5.55;;;;;;;23.05;55.62;95650.31;5112344;27;20667;-69
2023/10/06 06:38:58;;;;;;;11.75;4.85;;;;;;;23.02;54.65;95617.78;5130865;27;20647;-69
2023/10/06 06:41:24;;;;;;;13.02;4.88;;;;;;;23.22;54.41;95644.66;5131127;27;20681;-69
2023/10/06 06:43:57;;;;;;;10.27;3.92;;;;;;;23.26;54.52;95651.09;5131219;27;20541;-68
2023/10/06 06:46:23;;;;;;;7.88;4.38;;;;;;;23.27;54.17;95652.69;5130974;27;20180;-68
2023/10/06 06:48:49;;;;;;;13.88;5.07;;;;;;;23.20;54.00;95654.84;5131159;27;20645;-69
2023/10/06 06:51:14;;;;;;;11.13;4.55;;;;;;;23.07;54.28;95655.41;5130966;27;20204;-69
2023/10/06 06:53:39;;;;;;;10.05;4.25;;;;;;;22.99;54.86;95655.94;5109015;28;20177;-69
2023/10/06 06:56:06;;;;;;;11.93;4.85;;;;;;;22.87;54.82;95640.09;5110568;28;20620;-69
2023/10/06 06:58:32;;;;;;;7.50;4.22;;;;;;;23.08;54.43;95654.34;5110460;28;20181;-70
2023/10/06 07:00:58;;;;;;;11.68;4.43;;;;;;;23.10;54.43;95658.34;5110526;28;20208;-70
2023/10/06 07:03:24;;;;;;;8.95;4.25;;;;;;;23.08;54.48;95654.34;5110430;28;20205;-69
2023/10/06 07:05:50;;;;;;;13.65;5.10;;;;;;;23.08;54.54;95657.03;5110229;28;20609;-69
2023/10/06 07:08:16;;;;;;;16.88;5.15;;;;;;;23.02;54.40;95658.09;5110467;28;20227;-69
2023/10/06 07:11:03;;;;;;;11.48;4.80;;;;;;;22.92;54.24;95637.41;5110059;28;20208;-69
2023/10/06 07:13:28;;;;;;;6.88;4.10;;;;;;;23.10;54.27;95663.72;5109750;28;20553;-69
2023/10/06 07:15:54;;;;;;;8.13;3.83;;;;;;;23.09;54.67;95658.63;5110270;28;20176;-70
2023/10/06 07:18:19;;;;;;;11.38;4.68;;;;;;;23.27;54.52;95655.38;5110258;28;20172;-69
2023/10/06 07:20:45;;;;;;;16.60;8.63;;;;;;;23.42;54.11;95654.56;5111181;28;20565;-69
2023/10/06 07:23:11;;;;;;;28.13;5.68;;;;;;;23.51;52.59;95658.34;5114536;28;20243;-68
2023/10/06 07:25:37;;;;;;;13.45;4.75;;;;;;;23.53;52.69;95658.84;5114215;28;20216;-69
2023/10/06 07:28:05;;;;;;;15.82;7.70;;;;;;;23.63;52.75;95648.88;5114496;28;20570;-69
2023/10/06 07:30:34;;;;;;;15.82;5.65;;;;;;;23.78;52.19;95660.69;5114167;28;20189;-68
2023/10/06 07:33:00;;;;;;;20.15;8.38;;;;;;;23.87;52.53;95651.00;5114365;28;20172;-68
2023/10/06 07:35:47;;;;;;;25.55;15.80;;;;;;;23.92;52.01;95650.97;5114306;27;20304;-68
2023/10/06 07:38:13;;;;;;;20.20;7.65;;;;;;;24.06;51.89;95641.19;5114342;27;20172;-68
2023/10/06 07:40:40;;;;;;;10.02;5.50;;;;;;;24.20;51.38;95650.31;5114161;28;20554;-70
2023/10/06 07:43:07;;;;;;;22.15;9.88;;;;;;;24.23;50.45;95641.69;5114079;28;20233;-69
2023/10/06 07:45:33;;;;;;;14.48;8.90;;;;;;;24.30;50.81;95647.56;5114301;28;20172;-69
2023/10/06 07:47:59;;;;;;;11.40;5.22;;;;;;;24.24;50.74;95639.81;5113930;28;20197;-69
2023/10/06 07:50:29;;;;;;;18.20;7.53;;;;;;;24.27;50.49;95648.13;5113882;28;20625;-68
2023/10/06 07:52:55;;;;;;;14.77;6.55;;;;;;;24.16;51.05;95643.84;5113871;28;20177;-70
2023/10/06 07:55:22;;;;;;;10.25;5.40;;;;;;;23.74;50.68;95635.41;5113690;28;20176;-68
2023/10/06 07:57:48;;;;;;;11.02;4.68;;;;;;;23.44;52.40;95638.97;5113834;28;20173;-68
2023/10/06 08:00:18;;;;;;;12.18;4.70;;;;;;;23.36;52.80;95645.69;5111380;27;20172;-69
2023/10/06 08:02:44;;;;;;;20.80;5.63;;;;;;;23.37;52.85;95644.63;5119648;27;20940;-67
2023/10/06 08:05:12;;;;;;;11.30;5.88;;;;;;;23.42;53.04;95641.13;5103686;28;20179;-69
2023/10/06 08:07:39;;;;;;;11.20;4.55;;;;;;;23.48;53.10;95642.72;5126507;27;20157;-69
2023/10/06 08:10:05;;;;;;;9.50;4.65;;;;;;;23.55;52.46;95645.94;5115764;27;20217;-69
2023/10/06 08:12:33;;;;;;;11.65;5.20;;;;;;;23.49;52.73;95644.38;5127564;27;20838;-69
2023/10/06 08:15:04;;;;;;;17.38;6.30;;;;;;;23.41;52.43;95640.31;5120973;27;20231;-68
2023/10/06 08:17:29;;;;;;;17.63;6.25;;;;;;;23.43;52.45;95640.88;5118925;27;20632;-68
2023/10/06 08:19:56;;;;;;;59.13;9.82;;;;;;;23.37;52.61;95644.63;5128412;27;20164;-69
2023/10/06 08:22:24;;;;;;;18.33;6.20;;;;;;;23.43;52.38;95648.94;5115443;27;20180;-68
2023/10/06 08:24:49;;;;;;;45.00;9.27;;;;;;;23.45;52.19;95654.81;5133395;27;20176;-69
2023/10/06 08:27:21;;;;;;;46.17;8.25;;;;;;;23.45;51.93;95657.50;5132864;27;20177;-69
2023/10/06 08:29:46;;;;;;;11.43;4.65;;;;;;;23.43;52.23;95658.88;5131262;27;20409;-70
2023/10/06 08:32:12;;;;;;;13.93;5.65;;;;;;;23.38;52.04;95650.81;5130759;27;20176;-71
2023/10/06 08:34:39;;;;;;;34.03;7.50;;;;;;;23.40;52.59;95652.16;5131279;27;20164;-71
2023/10/06 08:37:10;;;;;;;16.92;5.47;;;;;;;23.39;52.30;95649.72;5131842;27;20221;-71
2023/10/06 08:39:39;;;;;;;12.63;4.75;;;;;;;23.31;52.15;95640.34;5133266;27;20168;-72
2023/10/06 08:42:09;;;;;;;8.68;4.45;;;;;;;23.37;52.05;95658.06;5133428;27;20180;-70
2023/10/06 08:44:37;;;;;;;10.25;4.80;;;;;;;23.38;52.22;95648.09;5133282;27;20181;-69
2023/10/06 08:47:03;;;;;;;11.02;5.25;;;;;;;23.34;52.20;95639.81;5133129;27;20168;-69
2023/10/06 08:49:29;;;;;;;14.80;6.22;;;;;;;23.24;52.31;95651.38;5132758;27;20192;-70
2023/10/06 08:51:57;;;;;;;9.85;4.93;;;;;;;23.17;52.26;95647.34;5132846;27;20195;-71
2023/10/06 08:54:24;;;;;;;59.85;10.38;;;;;;;23.10;52.55;95652.16;5133164;27;20164;-70
2023/10/06 08:56:49;;;;;;;90.28;12.70;;;;;;;23.08;52.66;95640.91;5113418;27;20177;-71
2023/10/06 08:59:15;;;;;;;34.45;6.57;;;;;;;23.11;52.97;95643.84;5112714;28;20177;-71
2023/10/06 09:01:43;;;;;;;12.68;6.07;;;;;;;23.05;52.75;95642.25;5110768;28;20153;-70
2023/10/06 09:04:09;;;;;;;130.15;19.58;;;;;;;23.04;53.13;95639.81;5112470;28;20176;-69
2023/10/06 09:06:37;;;;;;;19.27;6.03;;;;;;;22.99;52.71;95637.16;5112245;28;20184;-71
2023/10/06 09:09:05;;;;;;;147.38;18.75;;;;;;;22.79;52.90;95638.75;5112326;28;20178;-69
2023/10/06 09:11:41;;;;;;;24.75;6.30;;;;;;;22.60;53.42;95624.19;5112472;27;20173;-69
2023/10/06 09:14:11;;;;;;;14.93;5.22;;;;;;;22.66;53.67;95628.50;5112435;28;20183;-69
2023/10/06 09:16:49;;;;;;;11.13;5.18;;;;;;;22.66;54.22;95630.41;5112370;28;20184;-69
2023/10/06 09:19:15;;;;;;;10.18;5.05;;;;;;;22.63;53.23;95629.06;5112075;28;20177;-69
2023/10/06 09:22:06;;;;;;;16.08;6.18;;;;;;;22.24;53.73;95625.22;5112136;28;20248;-69
2023/10/06 09:24:32;;;;;;;11.95;5.97;;;;;;;22.15;54.75;95628.41;5111941;28;20188;-69
2023/10/06 09:26:58;;;;;;;12.40;5.93;;;;;;;22.19;55.26;95629.50;5111105;28;20229;-69
2023/10/06 09:29:33;;;;;;;141.07;19.20;;;;;;;22.32;54.67;95625.50;5111087;28;20229;-69
2023/10/06 09:32:00;;;;;;;14.68;5.80;;;;;;;22.27;54.26;95619.31;5111218;28;20176;-69
2023/10/06 09:34:26;;;;;;;20.92;6.82;;;;;;;22.35;54.77;95626.84;5110292;27;20193;-69
2023/10/06 09:36:52;;;;;;;14.00;6.22;;;;;;;22.46;54.19;95628.50;5111718;28;20207;-69
2023/10/06 09:39:32;;;;;;;7.80;5.38;;;;;;;22.60;54.07;95621.53;5111049;28;20578;-69
2023/10/06 09:42:05;;;;;;;6.75;4.88;;;;;;;22.73;53.04;95625.56;5111113;28;20172;-69
2023/10/06 09:44:34;;;;;;;9.40;5.00;;;;;;;22.66;52.53;95616.97;5091863;28;20173;-69
2023/10/06 09:47:00;;;;;;;9.38;5.38;;;;;;;22.51;53.89;95621.25;5110928;27;20624;-69
2023/10/06 09:49:28;;;;;;;12.43;5.32;;;;;;;22.57;54.20;95620.16;5110612;28;20543;-69
2023/10/06 09:51:57;;;;;;;11.90;4.50;;;;;;;22.69;53.61;95611.06;5110893;28;20636;-69
2023/10/06 09:54:24;;;;;;;10.40;4.93;;;;;;;22.82;52.42;95616.75;5092872;28;20192;-69
2023/10/06 09:56:54;;;;;;;11.13;5.35;;;;;;;22.87;51.80;95623.97;5092674;28;20499;-69
2023/10/06 09:59:22;;;;;;;14.20;4.97;;;;;;;22.89;51.87;95619.16;5110825;28;20173;-69
2023/10/06 10:01:49;;;;;;;8.02;4.80;;;;;;;22.85;51.91;95610.81;5110627;28;20173;-69
2023/10/06 10:04:16;;;;;;;17.55;4.90;;;;;;;22.96;51.61;95611.63;5092322;28;20570;-69
2023/10/06 10:06:44;;;;;;;11.10;5.10;;;;;;;23.04;51.62;95621.03;5110649;28;20233;-69
2023/10/06 10:09:16;;;;;;;10.88;4.93;;;;;;;23.12;50.67;95626.66;5110498;28;20181;-69
2023/10/06 10:11:51;;;;;;;11.23;5.10;;;;;;;23.16;50.70;95621.56;5110519;28;20201;-69
2023/10/06 10:14:32;;;;;;;11.95;4.90;;;;;;;23.22;50.50;95615.09;5092085;28;20528;-69
2023/10/06 10:17:46;;;;;;;17.85;5.45;;;;;;;23.26;49.82;95619.63;5110418;28;20648;-70
2023/10/06 10:20:15;;;;;;;12.18;4.47;;;;;;;23.12;49.51;95589.03;5007707;28;20682;-68
2023/10/06 10:22:42;;;;;;;13.57;5.13;;;;;;;23.25;49.41;95614.56;5022799;28;20189;-68
2023/10/06 10:25:09;;;;;;;7.95;4.32;;;;;;;23.23;49.49;95601.38;5109894;28;20270;-69
2023/10/06 10:27:37;;;;;;;22.50;5.53;;;;;;;23.12;48.98;95604.34;5110063;28;20664;-69
2023/10/06 10:30:12;;;;;;;31.90;6.18;;;;;;;22.91;49.48;95596.34;5110158;28;20193;-70
2023/10/06 10:32:42;;;;;;;10.25;5.38;;;;;;;22.86;50.09;95598.19;5110112;28;20614;-69
2023/10/06 10:35:15;;;;;;;19.45;7.45;;;;;;;22.68;49.87;95577.22;5091488;28;20615;-69
2023/10/06 10:38:02;;;;;;;10.23;4.93;;;;;;;22.61;49.65;95588.25;5109631;28;20168;-69
2023/10/06 10:40:29;;;;;;;20.63;5.75;;;;;;;22.56;50.33;95586.38;5110031;28;20668;-69
2023/10/06 10:43:02;;;;;;;31.23;6.53;;;;;;;22.53;49.77;95584.22;5110370;28;20242;-69
2023/10/06 10:45:34;;;;;;;56.30;9.13;;;;;;;22.59;49.37;95582.31;5110599;28;20180;-70
2023/10/06 10:48:13;;;;;;;13.70;4.55;;;;;;;22.52;48.77;95577.22;5110165;28;20169;-69
2023/10/06 10:51:11;;;;;;;10.73;4.55;;;;;;;22.10;48.93;95571.28;5110054;28;20196;-70
2023/10/06 10:53:55;;;;;;;11.00;4.53;;;;;;;22.03;49.17;95565.38;5110114;28;20570;-70
